sensor_id;sensor_type;location;lat;lon;timestamp;pressure;altitude;pressure_sealevel;temperature
74539;BMP180;66042;51.090;-115.340;2023-08-06T00:01:47;87545.40;;;33.78
74539;BMP180;66042;51.090;-115.340;2023-08-06T00:04:14;87545.60;;;33.24
74539;BMP180;66042;51.090;-115.340;2023-08-06T00:06:40;87540.80;;;32.80
74539;BMP180;66042;51.090;-115.340;2023-08-06T00:09:07;87541.00;;;32.72
74539;BMP180;66042;51.090;-115.340;2023-08-06T00:11:34;87532.60;;;32.50
74539;BMP180;66042;51.090;-115.340;2023-08-06T00:14:02;87528.60;;;32.60
74539;BMP180;66042;51.090;-115.340;2023-08-06T00:16:29;87528.80;;;32.92
74539;BMP180;66042;51.090;-115.340;2023-08-06T00:18:59;87526.60;;;32.84
74539;BMP180;66042;51.090;-115.340;2023-08-06T00:21:26;87529.40;;;32.90
74539;BMP180;66042;51.090;-115.340;2023-08-06T00:23:53;87530.20;;;32.58
74539;BMP180;66042;51.090;-115.340;2023-08-06T00:26:20;87531.80;;;32.10
74539;BMP180;66042;51.090;-115.340;2023-08-06T00:28:47;87528.60;;;31.66
74539;BMP180;66042;51.090;-115.340;2023-08-06T00:31:14;87528.40;;;31.24
74539;BMP180;66042;51.090;-115.340;2023-08-06T00:33:40;87526.20;;;30.74
74539;BMP180;66042;51.090;-115.340;2023-08-06T00:36:08;87534.00;;;30.60
74539;BMP180;66042;51.090;-115.340;2023-08-06T00:38:34;87535.00;;;30.40
74539;BMP180;66042;51.090;-115.340;2023-08-06T00:41:01;87534.00;;;30.28
74539;BMP180;66042;51.090;-115.340;2023-08-06T00:43:29;87528.20;;;30.04
74539;BMP180;66042;51.090;-115.340;2023-08-06T00:45:56;87522.00;;;29.78
74539;BMP180;66042;51.090;-115.340;2023-08-06T00:48:23;87520.40;;;29.50
74539;BMP180;66042;51.090;-115.340;2023-08-06T00:50:50;87529.80;;;29.30
74539;BMP180;66042;51.090;-115.340;2023-08-06T00:53:17;87530.20;;;29.10
74539;BMP180;66042;51.090;-115.340;2023-08-06T00:55:45;87526.80;;;28.80
74539;BMP180;66042;51.090;-115.340;2023-08-06T00:58:14;87527.80;;;28.60
74539;BMP180;66042;51.090;-115.340;2023-08-06T01:00:42;87526.40;;;28.32
74539;BMP180;66042;51.090;-115.340;2023-08-06T01:03:09;87526.00;;;28.10
74539;BMP180;66042;51.090;-115.340;2023-08-06T01:05:36;87524.00;;;27.80
74539;BMP180;66042;51.090;-115.340;2023-08-06T01:11:33;87526.00;;;27.24
74539;BMP180;66042;51.090;-115.340;2023-08-06T01:14:44;87527.40;;;27.00
74539;BMP180;66042;51.090;-115.340;2023-08-06T01:17:14;87524.20;;;26.90
74539;BMP180;66042;51.090;-115.340;2023-08-06T01:19:41;87526.60;;;26.90
74539;BMP180;66042;51.090;-115.340;2023-08-06T01:22:08;87530.40;;;26.70
74539;BMP180;66042;51.090;-115.340;2023-08-06T01:24:35;87524.80;;;26.60
74539;BMP180;66042;51.090;-115.340;2023-08-06T01:27:23;87529.60;;;26.60
74539;BMP180;66042;51.090;-115.340;2023-08-06T01:30:13;87525.40;;;26.50
74539;BMP180;66042;51.090;-115.340;2023-08-06T01:32:46;87520.40;;;26.50
74539;BMP180;66042;51.090;-115.340;2023-08-06T01:35:17;87522.80;;;26.44
74539;BMP180;66042;51.090;-115.340;2023-08-06T01:37:47;87519.80;;;26.40
74539;BMP180;66042;51.090;-115.340;2023-08-06T01:40:15;87523.80;;;26.20
74539;BMP180;66042;51.090;-115.340;2023-08-06T01:42:41;87525.20;;;26.10
74539;BMP180;66042;51.090;-115.340;2023-08-06T01:45:09;87527.00;;;26.00
74539;BMP180;66042;51.090;-115.340;2023-08-06T01:47:36;87522.80;;;25.90
74539;BMP180;66042;51.090;-115.340;2023-08-06T01:50:04;87518.60;;;25.80
74539;BMP180;66042;51.090;-115.340;2023-08-06T01:52:31;87521.40;;;25.80
74539;BMP180;66042;51.090;-115.340;2023-08-06T01:54:58;87523.40;;;25.70
74539;BMP180;66042;51.090;-115.340;2023-08-06T01:57:25;87526.00;;;25.70
74539;BMP180;66042;51.090;-115.340;2023-08-06T01:59:52;87522.60;;;25.50
74539;BMP180;66042;51.090;-115.340;2023-08-06T02:02:19;87523.60;;;25.40
74539;BMP180;66042;51.090;-115.340;2023-08-06T02:04:45;87526.80;;;25.20
74539;BMP180;66042;51.090;-115.340;2023-08-06T02:07:12;87528.60;;;25.10
74539;BMP180;66042;51.090;-115.340;2023-08-06T02:09:39;87529.60;;;24.80
74539;BMP180;66042;51.090;-115.340;2023-08-06T02:12:07;87533.20;;;24.60
74539;BMP180;66042;51.090;-115.340;2023-08-06T02:14:34;87542.00;;;24.46
74539;BMP180;66042;51.090;-115.340;2023-08-06T02:17:02;87537.60;;;24.30
74539;BMP180;66042;51.090;-115.340;2023-08-06T02:19:28;87533.40;;;24.10
74539;BMP180;66042;51.090;-115.340;2023-08-06T02:21:55;87535.60;;;24.00
74539;BMP180;66042;51.090;-115.340;2023-08-06T02:24:22;87540.20;;;24.00
74539;BMP180;66042;51.090;-115.340;2023-08-06T02:26:49;87539.60;;;23.84
74539;BMP180;66042;51.090;-115.340;2023-08-06T02:29:18;87538.40;;;23.80
74539;BMP180;66042;51.090;-115.340;2023-08-06T02:31:45;87537.40;;;23.74
74539;BMP180;66042;51.090;-115.340;2023-08-06T02:34:12;87547.20;;;23.70
74539;BMP180;66042;51.090;-115.340;2023-08-06T02:36:39;87547.60;;;23.60
74539;BMP180;66042;51.090;-115.340;2023-08-06T02:39:07;87549.60;;;23.50
74539;BMP180;66042;51.090;-115.340;2023-08-06T02:41:33;87550.20;;;23.40
74539;BMP180;66042;51.090;-115.340;2023-08-06T02:44:00;87556.20;;;23.30
74539;BMP180;66042;51.090;-115.340;2023-08-06T02:46:27;87555.80;;;23.20
74539;BMP180;66042;51.090;-115.340;2023-08-06T02:48:54;87560.20;;;23.10
74539;BMP180;66042;51.090;-115.340;2023-08-06T02:51:21;87564.40;;;23.08
74539;BMP180;66042;51.090;-115.340;2023-08-06T02:53:49;87566.40;;;23.00
74539;BMP180;66042;51.090;-115.340;2023-08-06T02:56:16;87568.20;;;23.00
74539;BMP180;66042;51.090;-115.340;2023-08-06T02:58:43;87560.80;;;22.82
74539;BMP180;66042;51.090;-115.340;2023-08-06T03:01:10;87563.20;;;22.78
74539;BMP180;66042;51.090;-115.340;2023-08-06T03:03:37;87566.40;;;22.66
74539;BMP180;66042;51.090;-115.340;2023-08-06T03:06:03;87574.20;;;22.60
74539;BMP180;66042;51.090;-115.340;2023-08-06T03:08:30;87569.40;;;22.40
74539;BMP180;66042;51.090;-115.340;2023-08-06T03:10:58;87571.80;;;22.32
74539;BMP180;66042;51.090;-115.340;2023-08-06T03:13:25;87571.20;;;22.30
74539;BMP180;66042;51.090;-115.340;2023-08-06T03:15:58;87569.60;;;22.28
74539;BMP180;66042;51.090;-115.340;2023-08-06T03:18:25;87583.80;;;22.20
74539;BMP180;66042;51.090;-115.340;2023-08-06T03:20:53;87577.60;;;22.10
74539;BMP180;66042;51.090;-115.340;2023-08-06T03:23:19;87576.20;;;22.04
74539;BMP180;66042;51.090;-115.340;2023-08-06T03:25:47;87572.40;;;22.00
74539;BMP180;66042;51.090;-115.340;2023-08-06T03:28:14;87571.20;;;21.90
74539;BMP180;66042;51.090;-115.340;2023-08-06T03:30:41;87571.40;;;21.80
74539;BMP180;66042;51.090;-115.340;2023-08-06T03:33:08;87573.40;;;21.62
74539;BMP180;66042;51.090;-115.340;2023-08-06T03:35:34;87575.00;;;21.60
74539;BMP180;66042;51.090;-115.340;2023-08-06T03:38:02;87575.20;;;21.50
74539;BMP180;66042;51.090;-115.340;2023-08-06T03:40:29;87576.20;;;21.40
74539;BMP180;66042;51.090;-115.340;2023-08-06T03:42:55;87587.40;;;21.30
74539;BMP180;66042;51.090;-115.340;2023-08-06T03:45:22;87592.00;;;21.20
74539;BMP180;66042;51.090;-115.340;2023-08-06T03:47:49;87596.00;;;21.20
74539;BMP180;66042;51.090;-115.340;2023-08-06T03:50:16;87598.60;;;21.10
74539;BMP180;66042;51.090;-115.340;2023-08-06T03:52:43;87604.00;;;21.10
74539;BMP180;66042;51.090;-115.340;2023-08-06T03:55:11;87606.40;;;21.00
74539;BMP180;66042;51.090;-115.340;2023-08-06T03:57:38;87611.60;;;21.00
74539;BMP180;66042;51.090;-115.340;2023-08-06T04:00:06;87609.80;;;20.90
74539;BMP180;66042;51.090;-115.340;2023-08-06T04:02:33;87612.80;;;20.80
74539;BMP180;66042;51.090;-115.340;2023-08-06T04:05:01;87614.80;;;20.70
74539;BMP180;66042;51.090;-115.340;2023-08-06T04:07:28;87617.40;;;20.60
74539;BMP180;66042;51.090;-115.340;2023-08-06T04:10:00;87621.00;;;20.50
74539;BMP180;66042;51.090;-115.340;2023-08-06T04:12:27;87626.80;;;20.50
74539;BMP180;66042;51.090;-115.340;2023-08-06T04:14:56;87628.80;;;20.48
74539;BMP180;66042;51.090;-115.340;2023-08-06T04:17:24;87626.60;;;20.40
74539;BMP180;66042;51.090;-115.340;2023-08-06T04:19:54;87627.20;;;20.30
74539;BMP180;66042;51.090;-115.340;2023-08-06T04:22:21;87634.20;;;20.26
74539;BMP180;66042;51.090;-115.340;2023-08-06T04:24:48;87639.00;;;20.20
74539;BMP180;66042;51.090;-115.340;2023-08-06T04:27:16;87639.40;;;20.10
74539;BMP180;66042;51.090;-115.340;2023-08-06T04:29:43;87647.20;;;20.10
74539;BMP180;66042;51.090;-115.340;2023-08-06T04:32:11;87643.80;;;20.10
74539;BMP180;66042;51.090;-115.340;2023-08-06T04:34:38;87640.20;;;20.00
74539;BMP180;66042;51.090;-115.340;2023-08-06T04:37:05;87648.00;;;20.00
74539;BMP180;66042;51.090;-115.340;2023-08-06T04:39:32;87654.80;;;20.00
74539;BMP180;66042;51.090;-115.340;2023-08-06T04:41:59;87662.60;;;19.90
74539;BMP180;66042;51.090;-115.340;2023-08-06T04:44:26;87661.60;;;19.90
74539;BMP180;66042;51.090;-115.340;2023-08-06T04:46:53;87669.00;;;19.90
74539;BMP180;66042;51.090;-115.340;2023-08-06T04:49:24;87675.20;;;19.80
74539;BMP180;66042;51.090;-115.340;2023-08-06T04:51:51;87678.00;;;19.70
74539;BMP180;66042;51.090;-115.340;2023-08-06T04:54:18;87675.40;;;19.70
74539;BMP180;66042;51.090;-115.340;2023-08-06T04:56:45;87675.80;;;19.70
74539;BMP180;66042;51.090;-115.340;2023-08-06T04:59:12;87676.00;;;19.70
74539;BMP180;66042;51.090;-115.340;2023-08-06T05:01:40;87675.60;;;19.60
74539;BMP180;66042;51.090;-115.340;2023-08-06T05:04:06;87679.20;;;19.52
74539;BMP180;66042;51.090;-115.340;2023-08-06T05:06:33;87676.60;;;19.50
74539;BMP180;66042;51.090;-115.340;2023-08-06T05:09:00;87671.20;;;19.50
74539;BMP180;66042;51.090;-115.340;2023-08-06T05:11:27;87671.20;;;19.50
74539;BMP180;66042;51.090;-115.340;2023-08-06T05:13:55;87672.80;;;19.50
74539;BMP180;66042;51.090;-115.340;2023-08-06T05:16:22;87673.80;;;19.40
74539;BMP180;66042;51.090;-115.340;2023-08-06T05:18:49;87672.80;;;19.40
74539;BMP180;66042;51.090;-115.340;2023-08-06T05:21:16;87666.60;;;19.36
74539;BMP180;66042;51.090;-115.340;2023-08-06T05:23:46;87661.20;;;19.30
74539;BMP180;66042;51.090;-115.340;2023-08-06T05:26:12;87660.40;;;19.30
74539;BMP180;66042;51.090;-115.340;2023-08-06T05:28:41;87655.60;;;19.30
74539;BMP180;66042;51.090;-115.340;2023-08-06T05:31:08;87653.80;;;19.26
74539;BMP180;66042;51.090;-115.340;2023-08-06T05:33:35;87657.60;;;19.20
74539;BMP180;66042;51.090;-115.340;2023-08-06T05:36:02;87659.40;;;19.20
74539;BMP180;66042;51.090;-115.340;2023-08-06T05:38:30;87666.20;;;19.20
74539;BMP180;66042;51.090;-115.340;2023-08-06T05:41:00;87659.60;;;19.10
74539;BMP180;66042;51.090;-115.340;2023-08-06T05:43:27;87660.60;;;19.00
74539;BMP180;66042;51.090;-115.340;2023-08-06T05:45:56;87661.40;;;18.90
74539;BMP180;66042;51.090;-115.340;2023-08-06T05:48:33;87660.60;;;18.90
74539;BMP180;66042;51.090;-115.340;2023-08-06T05:51:00;87660.20;;;18.80
74539;BMP180;66042;51.090;-115.340;2023-08-06T05:53:27;87665.60;;;18.80
74539;BMP180;66042;51.090;-115.340;2023-08-06T05:55:54;87666.20;;;18.80
74539;BMP180;66042;51.090;-115.340;2023-08-06T05:58:21;87669.60;;;18.70
74539;BMP180;66042;51.090;-115.340;2023-08-06T06:00:51;87665.20;;;18.60
74539;BMP180;66042;51.090;-115.340;2023-08-06T06:03:18;87666.00;;;18.58
74539;BMP180;66042;51.090;-115.340;2023-08-06T06:05:45;87661.40;;;18.50
74539;BMP180;66042;51.090;-115.340;2023-08-06T06:08:12;87662.00;;;18.40
74539;BMP180;66042;51.090;-115.340;2023-08-06T06:10:39;87659.80;;;18.30
74539;BMP180;66042;51.090;-115.340;2023-08-06T06:13:06;87663.20;;;18.28
74539;BMP180;66042;51.090;-115.340;2023-08-06T06:15:33;87667.20;;;18.20
74539;BMP180;66042;51.090;-115.340;2023-08-06T06:18:00;87672.00;;;18.20
74539;BMP180;66042;51.090;-115.340;2023-08-06T06:20:27;87678.80;;;18.10
74539;BMP180;66042;51.090;-115.340;2023-08-06T06:22:54;87678.00;;;18.00
74539;BMP180;66042;51.090;-115.340;2023-08-06T06:25:20;87681.60;;;17.90
74539;BMP180;66042;51.090;-115.340;2023-08-06T06:27:48;87676.80;;;17.80
74539;BMP180;66042;51.090;-115.340;2023-08-06T06:30:15;87675.40;;;17.80
74539;BMP180;66042;51.090;-115.340;2023-08-06T06:32:42;87670.80;;;17.70
74539;BMP180;66042;51.090;-115.340;2023-08-06T06:35:10;87668.60;;;17.66
74539;BMP180;66042;51.090;-115.340;2023-08-06T06:37:37;87662.40;;;17.60
74539;BMP180;66042;51.090;-115.340;2023-08-06T06:40:04;87658.60;;;17.60
74539;BMP180;66042;51.090;-115.340;2023-08-06T06:42:31;87661.80;;;17.60
74539;BMP180;66042;51.090;-115.340;2023-08-06T06:44:58;87653.20;;;17.60
74539;BMP180;66042;51.090;-115.340;2023-08-06T06:47:25;87650.80;;;17.60
74539;BMP180;66042;51.090;-115.340;2023-08-06T06:49:55;87648.80;;;17.66
74539;BMP180;66042;51.090;-115.340;2023-08-06T06:52:22;87648.40;;;17.60
74539;BMP180;66042;51.090;-115.340;2023-08-06T06:54:49;87648.00;;;17.60
74539;BMP180;66042;51.090;-115.340;2023-08-06T06:57:16;87652.60;;;17.58
74539;BMP180;66042;51.090;-115.340;2023-08-06T06:59:44;87653.60;;;17.50
74539;BMP180;66042;51.090;-115.340;2023-08-06T07:02:10;87653.20;;;17.48
74539;BMP180;66042;51.090;-115.340;2023-08-06T07:04:37;87652.60;;;17.40
74539;BMP180;66042;51.090;-115.340;2023-08-06T07:07:04;87651.80;;;17.40
74539;BMP180;66042;51.090;-115.340;2023-08-06T07:09:32;87655.40;;;17.40
74539;BMP180;66042;51.090;-115.340;2023-08-06T07:11:59;87658.20;;;17.40
74539;BMP180;66042;51.090;-115.340;2023-08-06T07:14:28;87658.20;;;17.38
74539;BMP180;66042;51.090;-115.340;2023-08-06T07:16:55;87659.00;;;17.30
74539;BMP180;66042;51.090;-115.340;2023-08-06T07:19:23;87656.00;;;17.30
74539;BMP180;66042;51.090;-115.340;2023-08-06T07:21:50;87656.00;;;17.26
74539;BMP180;66042;51.090;-115.340;2023-08-06T07:24:16;87653.20;;;17.20
74539;BMP180;66042;51.090;-115.340;2023-08-06T07:26:44;87650.40;;;17.20
74539;BMP180;66042;51.090;-115.340;2023-08-06T07:29:11;87646.40;;;17.20
74539;BMP180;66042;51.090;-115.340;2023-08-06T07:31:38;87642.20;;;17.10
74539;BMP180;66042;51.090;-115.340;2023-08-06T07:34:05;87640.40;;;17.10
74539;BMP180;66042;51.090;-115.340;2023-08-06T07:36:32;87639.20;;;17.10
74539;BMP180;66042;51.090;-115.340;2023-08-06T07:39:00;87639.60;;;17.00
74539;BMP180;66042;51.090;-115.340;2023-08-06T07:41:27;87637.60;;;17.00
74539;BMP180;66042;51.090;-115.340;2023-08-06T07:43:53;87636.40;;;16.90
74539;BMP180;66042;51.090;-115.340;2023-08-06T07:46:21;87635.80;;;16.90
74539;BMP180;66042;51.090;-115.340;2023-08-06T07:48:47;87627.00;;;16.88
74539;BMP180;66042;51.090;-115.340;2023-08-06T07:51:14;87625.20;;;16.70
74539;BMP180;66042;51.090;-115.340;2023-08-06T07:53:42;87628.20;;;16.70
74539;BMP180;66042;51.090;-115.340;2023-08-06T07:56:08;87626.00;;;16.60
74539;BMP180;66042;51.090;-115.340;2023-08-06T07:58:35;87632.20;;;16.60
74539;BMP180;66042;51.090;-115.340;2023-08-06T08:01:03;87629.40;;;16.50
74539;BMP180;66042;51.090;-115.340;2023-08-06T08:03:30;87621.20;;;16.50
74539;BMP180;66042;51.090;-115.340;2023-08-06T08:05:57;87618.20;;;16.42
74539;BMP180;66042;51.090;-115.340;2023-08-06T08:08:24;87613.00;;;16.40
74539;BMP180;66042;51.090;-115.340;2023-08-06T08:10:52;87613.60;;;16.40
74539;BMP180;66042;51.090;-115.340;2023-08-06T08:13:19;87610.60;;;16.36
74539;BMP180;66042;51.090;-115.340;2023-08-06T08:15:46;87610.40;;;16.30
74539;BMP180;66042;51.090;-115.340;2023-08-06T08:18:13;87613.00;;;16.22
74539;BMP180;66042;51.090;-115.340;2023-08-06T08:20:40;87613.00;;;16.20
74539;BMP180;66042;51.090;-115.340;2023-08-06T08:23:07;87611.00;;;16.14
74539;BMP180;66042;51.090;-115.340;2023-08-06T08:25:34;87609.60;;;16.10
74539;BMP180;66042;51.090;-115.340;2023-08-06T08:28:02;87607.00;;;16.00
74539;BMP180;66042;51.090;-115.340;2023-08-06T08:30:29;87602.20;;;15.90
74539;BMP180;66042;51.090;-115.340;2023-08-06T08:32:56;87600.80;;;15.90
74539;BMP180;66042;51.090;-115.340;2023-08-06T08:35:23;87598.60;;;15.84
74539;BMP180;66042;51.090;-115.340;2023-08-06T08:37:51;87599.80;;;15.80
74539;BMP180;66042;51.090;-115.340;2023-08-06T08:40:18;87605.00;;;15.80
74539;BMP180;66042;51.090;-115.340;2023-08-06T08:42:46;87607.20;;;15.70
74539;BMP180;66042;51.090;-115.340;2023-08-06T08:45:15;87600.40;;;15.60
74539;BMP180;66042;51.090;-115.340;2023-08-06T08:47:42;87601.60;;;15.60
74539;BMP180;66042;51.090;-115.340;2023-08-06T08:50:11;87604.40;;;15.50
74539;BMP180;66042;51.090;-115.340;2023-08-06T08:52:39;87602.20;;;15.50
74539;BMP180;66042;51.090;-115.340;2023-08-06T08:55:08;87606.40;;;15.50
74539;BMP180;66042;51.090;-115.340;2023-08-06T08:57:36;87607.20;;;15.40
74539;BMP180;66042;51.090;-115.340;2023-08-06T09:00:04;87601.60;;;15.30
74539;BMP180;66042;51.090;-115.340;2023-08-06T09:02:33;87600.40;;;15.20
74539;BMP180;66042;51.090;-115.340;2023-08-06T09:05:03;87600.40;;;15.10
74539;BMP180;66042;51.090;-115.340;2023-08-06T09:07:42;87605.00;;;15.00
74539;BMP180;66042;51.090;-115.340;2023-08-06T09:10:11;87606.60;;;14.92
74539;BMP180;66042;51.090;-115.340;2023-08-06T09:12:42;87599.60;;;14.80
74539;BMP180;66042;51.090;-115.340;2023-08-06T09:15:09;87601.20;;;14.80
74539;BMP180;66042;51.090;-115.340;2023-08-06T09:17:37;87599.20;;;14.80
74539;BMP180;66042;51.090;-115.340;2023-08-06T09:20:14;87594.80;;;14.80
74539;BMP180;66042;51.090;-115.340;2023-08-06T09:22:41;87597.60;;;14.80
74539;BMP180;66042;51.090;-115.340;2023-08-06T09:25:08;87598.00;;;14.80
74539;BMP180;66042;51.090;-115.340;2023-08-06T09:27:40;87598.40;;;14.80
74539;BMP180;66042;51.090;-115.340;2023-08-06T09:30:07;87595.20;;;14.74
74539;BMP180;66042;51.090;-115.340;2023-08-06T09:32:48;87595.60;;;14.68
74539;BMP180;66042;51.090;-115.340;2023-08-06T09:35:19;87596.40;;;14.60
74539;BMP180;66042;51.090;-115.340;2023-08-06T09:37:46;87597.60;;;14.60
74539;BMP180;66042;51.090;-115.340;2023-08-06T09:40:30;87600.00;;;14.54
74539;BMP180;66042;51.090;-115.340;2023-08-06T09:42:59;87596.60;;;14.50
74539;BMP180;66042;51.090;-115.340;2023-08-06T09:45:35;87593.40;;;14.40
74539;BMP180;66042;51.090;-115.340;2023-08-06T09:48:09;87591.60;;;14.40
74539;BMP180;66042;51.090;-115.340;2023-08-06T09:50:38;87592.60;;;14.40
74539;BMP180;66042;51.090;-115.340;2023-08-06T09:53:09;87592.00;;;14.40
74539;BMP180;66042;51.090;-115.340;2023-08-06T09:55:36;87589.80;;;14.40
74539;BMP180;66042;51.090;-115.340;2023-08-06T09:58:04;87588.60;;;14.30
74539;BMP180;66042;51.090;-115.340;2023-08-06T10:00:33;87586.60;;;14.20
74539;BMP180;66042;51.090;-115.340;2023-08-06T10:03:01;87584.20;;;14.10
74539;BMP180;66042;51.090;-115.340;2023-08-06T10:05:29;87580.20;;;14.20
74539;BMP180;66042;51.090;-115.340;2023-08-06T10:08:00;87583.20;;;14.20
74539;BMP180;66042;51.090;-115.340;2023-08-06T10:10:29;87578.20;;;14.20
74539;BMP180;66042;51.090;-115.340;2023-08-06T10:12:59;87580.60;;;14.20
74539;BMP180;66042;51.090;-115.340;2023-08-06T10:15:31;87580.60;;;14.10
74539;BMP180;66042;51.090;-115.340;2023-08-06T10:18:01;87577.00;;;14.10
74539;BMP180;66042;51.090;-115.340;2023-08-06T10:20:34;87572.00;;;14.10
74539;BMP180;66042;51.090;-115.340;2023-08-06T10:23:06;87567.60;;;14.10
74539;BMP180;66042;51.090;-115.340;2023-08-06T10:25:41;87566.20;;;14.10
74539;BMP180;66042;51.090;-115.340;2023-08-06T10:28:12;87564.60;;;14.10
74539;BMP180;66042;51.090;-115.340;2023-08-06T10:30:48;87567.40;;;14.00
74539;BMP180;66042;51.090;-115.340;2023-08-06T10:33:19;87564.80;;;13.90
74539;BMP180;66042;51.090;-115.340;2023-08-06T10:35:49;87564.40;;;13.90
74539;BMP180;66042;51.090;-115.340;2023-08-06T10:38:19;87565.60;;;13.90
74539;BMP180;66042;51.090;-115.340;2023-08-06T10:43:34;87563.40;;;13.80
74539;BMP180;66042;51.090;-115.340;2023-08-06T10:46:10;87566.80;;;13.72
74539;BMP180;66042;51.090;-115.340;2023-08-06T10:48:43;87569.40;;;13.70
74539;BMP180;66042;51.090;-115.340;2023-08-06T10:51:14;87571.60;;;13.70
74539;BMP180;66042;51.090;-115.340;2023-08-06T10:53:49;87571.40;;;13.70
74539;BMP180;66042;51.090;-115.340;2023-08-06T10:58:47;87570.60;;;13.60
74539;BMP180;66042;51.090;-115.340;2023-08-06T11:01:15;87573.00;;;13.52
74539;BMP180;66042;51.090;-115.340;2023-08-06T11:03:47;87572.20;;;13.50
74539;BMP180;66042;51.090;-115.340;2023-08-06T11:06:21;87575.80;;;13.40
74539;BMP180;66042;51.090;-115.340;2023-08-06T11:08:54;87574.60;;;13.40
74539;BMP180;66042;51.090;-115.340;2023-08-06T11:11:22;87573.60;;;13.40
74539;BMP180;66042;51.090;-115.340;2023-08-06T11:13:51;87575.40;;;13.30
74539;BMP180;66042;51.090;-115.340;2023-08-06T11:16:22;87569.80;;;13.30
74539;BMP180;66042;51.090;-115.340;2023-08-06T11:18:54;87568.40;;;13.20
74539;BMP180;66042;51.090;-115.340;2023-08-06T11:21:23;87566.80;;;13.20
74539;BMP180;66042;51.090;-115.340;2023-08-06T11:23:52;87563.40;;;13.18
74539;BMP180;66042;51.090;-115.340;2023-08-06T11:26:23;87565.80;;;13.10
74539;BMP180;66042;51.090;-115.340;2023-08-06T11:28:50;87563.40;;;13.10
74539;BMP180;66042;51.090;-115.340;2023-08-06T11:31:22;87566.00;;;13.10
74539;BMP180;66042;51.090;-115.340;2023-08-06T11:33:54;87567.80;;;13.00
74539;BMP180;66042;51.090;-115.340;2023-08-06T11:36:31;87565.80;;;13.00
74539;BMP180;66042;51.090;-115.340;2023-08-06T11:39:01;87562.60;;;13.00
74539;BMP180;66042;51.090;-115.340;2023-08-06T11:41:29;87562.40;;;12.90
74539;BMP180;66042;51.090;-115.340;2023-08-06T11:44:00;87556.00;;;12.90
74539;BMP180;66042;51.090;-115.340;2023-08-06T11:46:27;87553.00;;;12.80
74539;BMP180;66042;51.090;-115.340;2023-08-06T11:48:58;87552.60;;;12.80
74539;BMP180;66042;51.090;-115.340;2023-08-06T11:51:28;87552.40;;;12.74
74539;BMP180;66042;51.090;-115.340;2023-08-06T11:53:59;87554.40;;;12.70
74539;BMP180;66042;51.090;-115.340;2023-08-06T11:56:27;87553.00;;;12.64
74539;BMP180;66042;51.090;-115.340;2023-08-06T11:58:57;87551.00;;;12.60
74539;BMP180;66042;51.090;-115.340;2023-08-06T12:01:25;87555.40;;;12.60
74539;BMP180;66042;51.090;-115.340;2023-08-06T12:03:59;87555.40;;;12.60
74539;BMP180;66042;51.090;-115.340;2023-08-06T12:06:29;87551.00;;;12.60
74539;BMP180;66042;51.090;-115.340;2023-08-06T12:08:55;87547.40;;;12.50
74539;BMP180;66042;51.090;-115.340;2023-08-06T12:11:23;87544.00;;;12.50
74539;BMP180;66042;51.090;-115.340;2023-08-06T12:13:55;87537.40;;;12.50
74539;BMP180;66042;51.090;-115.340;2023-08-06T12:16:23;87537.80;;;12.46
74539;BMP180;66042;51.090;-115.340;2023-08-06T12:18:50;87537.00;;;12.40
74539;BMP180;66042;51.090;-115.340;2023-08-06T12:21:18;87538.60;;;12.40
74539;BMP180;66042;51.090;-115.340;2023-08-06T12:23:45;87541.60;;;12.30
74539;BMP180;66042;51.090;-115.340;2023-08-06T12:26:11;87545.60;;;12.30
74539;BMP180;66042;51.090;-115.340;2023-08-06T12:28:39;87543.80;;;12.20
74539;BMP180;66042;51.090;-115.340;2023-08-06T12:31:05;87544.80;;;12.20
74539;BMP180;66042;51.090;-115.340;2023-08-06T12:33:32;87545.80;;;12.24
74539;BMP180;66042;51.090;-115.340;2023-08-06T12:35:59;87543.40;;;12.20
74539;BMP180;66042;51.090;-115.340;2023-08-06T12:38:26;87541.80;;;12.20
74539;BMP180;66042;51.090;-115.340;2023-08-06T12:40:54;87542.60;;;12.20
74539;BMP180;66042;51.090;-115.340;2023-08-06T12:43:20;87541.20;;;12.20
74539;BMP180;66042;51.090;-115.340;2023-08-06T12:45:47;87544.20;;;12.20
74539;BMP180;66042;51.090;-115.340;2023-08-06T12:48:15;87546.60;;;12.20
74539;BMP180;66042;51.090;-115.340;2023-08-06T12:50:45;87544.20;;;12.20
74539;BMP180;66042;51.090;-115.340;2023-08-06T12:53:12;87544.80;;;12.20
74539;BMP180;66042;51.090;-115.340;2023-08-06T12:55:39;87543.00;;;12.20
74539;BMP180;66042;51.090;-115.340;2023-08-06T12:58:07;87541.60;;;12.20
74539;BMP180;66042;51.090;-115.340;2023-08-06T13:00:34;87540.20;;;12.20
74539;BMP180;66042;51.090;-115.340;2023-08-06T13:03:02;87537.60;;;12.20
74539;BMP180;66042;51.090;-115.340;2023-08-06T13:05:29;87538.80;;;12.20
74539;BMP180;66042;51.090;-115.340;2023-08-06T13:07:57;87536.60;;;12.18
74539;BMP180;66042;51.090;-115.340;2023-08-06T13:10:24;87537.20;;;12.20
74539;BMP180;66042;51.090;-115.340;2023-08-06T13:12:51;87537.40;;;12.20
74539;BMP180;66042;51.090;-115.340;2023-08-06T13:15:18;87537.00;;;12.10
74539;BMP180;66042;51.090;-115.340;2023-08-06T13:17:47;87543.20;;;12.10
74539;BMP180;66042;51.090;-115.340;2023-08-06T13:20:14;87543.80;;;12.20
74539;BMP180;66042;51.090;-115.340;2023-08-06T13:22:41;87540.20;;;12.20
74539;BMP180;66042;51.090;-115.340;2023-08-06T13:25:08;87535.80;;;12.20
74539;BMP180;66042;51.090;-115.340;2023-08-06T13:27:34;87536.40;;;12.20
74539;BMP180;66042;51.090;-115.340;2023-08-06T13:30:01;87537.40;;;12.20
74539;BMP180;66042;51.090;-115.340;2023-08-06T13:32:30;87535.00;;;12.30
74539;BMP180;66042;51.090;-115.340;2023-08-06T13:34:57;87536.60;;;12.28
74539;BMP180;66042;51.090;-115.340;2023-08-06T13:37:24;87535.00;;;12.20
74539;BMP180;66042;51.090;-115.340;2023-08-06T13:39:51;87533.20;;;12.20
74539;BMP180;66042;51.090;-115.340;2023-08-06T13:42:18;87537.20;;;12.30
74539;BMP180;66042;51.090;-115.340;2023-08-06T13:44:45;87538.40;;;12.30
74539;BMP180;66042;51.090;-115.340;2023-08-06T13:47:12;87539.40;;;12.30